createdAt,value
2023-02-04T14:09:03.020Z,102015.23
2023-02-04T14:15:13.479Z,102016.50
2023-02-04T14:17:46.302Z,102025.71
2023-02-04T14:20:18.146Z,102026.27
2023-02-04T14:22:51.461Z,102030.23
2023-02-04T14:25:22.351Z,102033.24
2023-02-04T14:27:52.979Z,102037.20
2023-02-04T14:30:28.049Z,102035.55
2023-02-04T14:32:59.429Z,102035.81
2023-02-04T14:35:33.277Z,102030.92
2023-02-04T14:38:04.005Z,102033.23
2023-02-04T14:40:37.672Z,102039.32
2023-02-04T14:43:11.608Z,102039.80
2023-02-04T14:45:46.855Z,102042.77
2023-02-04T14:48:21.444Z,102046.57
2023-02-04T14:50:52.469Z,102048.95
2023-02-04T14:53:23.109Z,102050.08
2023-02-04T14:55:56.153Z,102048.55
2023-02-04T14:58:27.933Z,102052.27
2023-02-04T15:01:01.556Z,102058.16
2023-02-04T15:03:36.362Z,102064.92
2023-02-04T15:06:07.552Z,102067.53
2023-02-04T15:08:46.564Z,102071.30
2023-02-04T15:11:17.064Z,102073.72
2023-02-04T15:13:47.904Z,102072.27
2023-02-04T15:16:20.940Z,102074.97
2023-02-04T15:18:51.604Z,102075.56
2023-02-04T15:21:22.078Z,102082.06
2023-02-04T15:23:54.085Z,102081.94
2023-02-04T15:26:27.109Z,102088.92
2023-02-04T15:28:57.777Z,102090.10
2023-02-04T15:31:32.486Z,102090.03
2023-02-04T15:34:05.741Z,102091.92
2023-02-04T15:36:37.251Z,102095.66
2023-02-04T15:39:08.142Z,102099.75
2023-02-04T15:41:38.637Z,102102.45
2023-02-04T15:44:09.534Z,102100.31
2023-02-04T15:46:43.475Z,102101.09
2023-02-04T15:53:47.958Z,102120.18
2023-02-04T15:56:23.320Z,102122.19
2023-02-04T15:58:55.258Z,102131.73
2023-02-04T16:01:28.704Z,102134.54
2023-02-04T16:04:01.210Z,102140.04
2023-02-04T16:06:35.000Z,102138.80
2023-02-04T16:09:05.726Z,102136.05
2023-02-04T16:11:38.142Z,102137.87
2023-02-04T16:14:10.820Z,102139.70
2023-02-04T16:16:41.304Z,102142.52
2023-02-04T16:19:12.319Z,102151.63
2023-02-04T16:21:46.435Z,102152.34
2023-02-04T16:24:19.028Z,102159.70
2023-02-04T16:26:51.876Z,102164.55
2023-02-04T16:29:23.363Z,102168.51
2023-02-04T16:31:58.169Z,102172.23
2023-02-04T16:34:31.687Z,102173.68
2023-02-04T16:37:03.629Z,102179.98
2023-02-04T16:39:34.199Z,102182.41
2023-02-04T16:42:09.267Z,102191.20
2023-02-04T16:44:41.238Z,102193.48
2023-02-04T16:47:14.608Z,102196.19
2023-02-04T16:49:46.764Z,102201.88
2023-02-04T16:52:17.633Z,102202.20
2023-02-04T16:54:48.382Z,102200.53
2023-02-04T16:57:19.768Z,102202.36
2023-02-04T16:59:51.064Z,102205.84
2023-02-04T17:02:23.176Z,102209.60
2023-02-04T17:04:56.640Z,102210.88
2023-02-04T17:12:00.168Z,102216.48
2023-02-04T17:14:30.710Z,102215.09
2023-02-04T17:17:05.314Z,102217.40
2023-02-04T17:19:37.792Z,102218.84
2023-02-04T17:22:09.955Z,102220.70
2023-02-04T17:24:44.011Z,102221.72
2023-02-04T17:27:15.117Z,102227.54
2023-02-04T17:29:46.074Z,102232.70
2023-02-04T17:32:20.215Z,102234.39
2023-02-04T17:34:51.180Z,102234.29
2023-02-04T17:37:22.176Z,102234.63
2023-02-04T17:39:53.462Z,102235.77
2023-02-04T17:42:28.299Z,102235.89
2023-02-04T17:45:00.041Z,102238.85
2023-02-04T17:47:36.760Z,102238.09
2023-02-04T17:50:12.152Z,102239.59
2023-02-04T17:52:43.231Z,102240.23
2023-02-04T17:55:31.957Z,102237.16
2023-02-04T17:58:16.476Z,102238.58
2023-02-04T18:00:49.936Z,102248.76
2023-02-04T18:03:26.255Z,102247.38
2023-02-04T18:06:00.382Z,102248.60
2023-02-04T18:08:42.240Z,102261.39
2023-02-04T18:11:28.852Z,102263.61
2023-02-04T18:14:09.952Z,102262.48
2023-02-04T18:16:42.204Z,102261.07
2023-02-04T18:19:28.342Z,102264.31
2023-02-04T18:22:01.233Z,102270.70
2023-02-04T18:29:23.904Z,102278.99
2023-02-04T18:31:59.867Z,102284.60
2023-02-04T18:34:44.831Z,102289.67
2023-02-04T18:37:37.953Z,102289.28
2023-02-04T18:40:12.889Z,102294.49
2023-02-04T18:42:48.424Z,102298.30
2023-02-04T18:45:37.558Z,102300.87
2023-02-04T18:48:22.474Z,102304.33
2023-02-04T18:50:57.684Z,102308.07
2023-02-04T18:53:30.901Z,102310.91
2023-02-04T18:56:05.873Z,102316.34
2023-02-04T18:58:44.762Z,102318.01
2023-02-04T19:01:30.256Z,102315.91
2023-02-04T19:04:06.458Z,102315.61
2023-02-04T19:06:52.669Z,102317.98
2023-02-04T19:09:33.183Z,102322.33
2023-02-04T19:12:23.034Z,102322.91
2023-02-04T19:14:57.009Z,102327.52
2023-02-04T19:17:31.664Z,102326.48
2023-02-04T19:20:11.928Z,102330.30
2023-02-04T19:22:50.359Z,102334.26
2023-02-04T19:25:33.951Z,102343.90
2023-02-04T19:28:37.679Z,102346.74
2023-02-04T19:31:11.541Z,102339.00
2023-02-04T19:33:47.249Z,102343.94
2023-02-04T19:36:42.341Z,102352.15
2023-02-04T19:39:39.009Z,102360.04
2023-02-04T19:42:35.817Z,102366.40
2023-02-04T19:45:22.894Z,102370.46
2023-02-04T19:47:56.720Z,102376.77
2023-02-04T19:50:34.811Z,102380.88
2023-02-04T19:53:20.906Z,102383.39
2023-02-04T19:55:55.906Z,102388.77
2023-02-04T19:58:44.117Z,102389.84
2023-02-04T20:01:24.963Z,102389.09
2023-02-04T20:03:57.214Z,102394.81
2023-02-04T20:06:39.277Z,102401.67
2023-02-04T20:09:30.656Z,102405.83
2023-02-04T20:12:07.537Z,102410.66
2023-02-04T20:14:45.019Z,102409.67
2023-02-04T20:17:47.609Z,102421.96
2023-02-04T20:20:32.421Z,102422.29
2023-02-04T20:23:18.857Z,102426.26
2023-02-04T20:25:51.366Z,102426.83
2023-02-04T20:28:30.706Z,102435.58
2023-02-04T20:31:04.257Z,102431.95
2023-02-04T20:33:51.013Z,102434.20
2023-02-04T20:36:38.965Z,102436.94
2023-02-04T20:39:12.225Z,102438.61
2023-02-04T20:41:47.041Z,102446.35
2023-02-04T20:44:23.506Z,102446.33
2023-02-04T20:47:04.815Z,102450.75
2023-02-04T20:49:43.435Z,102455.14
2023-02-04T20:52:53.550Z,102453.76
2023-02-04T20:55:30.774Z,102460.83
2023-02-04T20:58:16.799Z,102465.88
2023-02-04T21:00:54.977Z,102474.59
2023-02-04T21:03:33.047Z,102476.83
2023-02-04T21:06:29.468Z,102482.19
2023-02-04T21:09:10.152Z,102491.55
2023-02-04T21:11:46.968Z,102496.37
2023-02-04T21:14:20.419Z,102504.73
2023-02-04T21:16:59.812Z,102508.59
2023-02-04T21:19:37.975Z,102508.27
2023-02-04T21:22:15.335Z,102514.30
2023-02-04T21:24:50.406Z,102516.94
2023-02-04T21:27:25.643Z,102520.83
2023-02-04T21:30:01.267Z,102522.39
2023-02-04T21:32:34.949Z,102526.77
2023-02-04T21:35:09.268Z,102528.27
2023-02-04T21:37:49.337Z,102522.67
2023-02-04T21:40:25.018Z,102525.27
2023-02-04T21:43:04.251Z,102532.41
2023-02-04T21:45:41.418Z,102535.41
2023-02-04T21:48:15.781Z,102533.21
2023-02-04T21:50:50.150Z,102533.27
2023-02-04T21:53:26.700Z,102537.46
2023-02-04T21:56:00.811Z,102538.77
2023-02-04T21:58:34.952Z,102543.08
2023-02-04T22:01:10.842Z,102546.98
2023-02-04T22:03:44.996Z,102552.77
2023-02-04T22:06:20.757Z,102559.20
2023-02-04T22:17:20.598Z,102562.14
2023-02-04T22:19:51.460Z,102561.35
2023-02-04T22:22:22.309Z,102561.45
2023-02-04T22:24:55.104Z,102568.45
2023-02-04T22:27:28.915Z,102572.70
2023-02-04T22:30:03.632Z,102578.67
2023-02-04T22:32:37.880Z,102584.19
2023-02-04T22:35:10.483Z,102586.48
2023-02-04T22:37:42.461Z,102585.81
2023-02-04T22:40:14.856Z,102588.20
2023-02-04T22:42:45.354Z,102595.66
2023-02-04T22:45:15.765Z,102600.77
2023-02-04T22:47:46.406Z,102601.36
2023-02-04T22:50:18.441Z,102602.13
2023-02-04T22:52:48.836Z,102603.65
2023-02-04T22:55:22.618Z,102602.27
2023-02-04T22:57:53.012Z,102607.23
2023-02-04T23:00:23.833Z,102606.42
2023-02-04T23:02:56.230Z,102609.91
2023-02-04T23:05:27.305Z,102612.30
2023-02-04T23:07:59.220Z,102617.38
2023-02-04T23:10:32.130Z,102614.98
2023-02-04T23:13:02.752Z,102616.95
2023-02-04T23:15:34.969Z,102620.14
2023-02-04T23:18:06.717Z,102623.43
2023-02-04T23:20:38.164Z,102626.02
2023-02-04T23:23:17.856Z,102619.89
2023-02-04T23:25:51.290Z,102624.27
2023-02-04T23:28:23.018Z,102618.61
2023-02-04T23:30:54.433Z,102617.86
2023-02-04T23:33:25.287Z,102627.25
2023-02-04T23:35:57.938Z,102631.11
2023-02-04T23:38:28.674Z,102630.77
2023-02-04T23:41:00.693Z,102626.55
2023-02-04T23:43:31.289Z,102627.15
2023-02-04T23:46:02.268Z,102628.13
2023-02-04T23:48:33.046Z,102627.25
2023-02-04T23:51:03.500Z,102620.95
2023-02-04T23:53:33.852Z,102619.02
2023-02-04T23:56:05.632Z,102621.27
2023-02-04T23:58:36.282Z,102620.45
